createdAt,value
2019-05-21T00:02:08.547Z,92.58
2019-05-21T00:04:38.225Z,92.64
2019-05-21T00:07:10.138Z,92.70
2019-05-21T00:09:39.513Z,92.81
2019-05-21T00:12:09.221Z,92.57
2019-05-21T00:14:38.605Z,92.82
2019-05-21T00:17:08.615Z,92.86
2019-05-21T00:19:38.168Z,92.86
2019-05-21T00:22:08.926Z,93.21
2019-05-21T00:24:38.649Z,93.46
2019-05-21T00:27:08.625Z,93.49
2019-05-21T00:30:14.771Z,93.49
2019-05-21T00:33:21.326Z,92.98
2019-05-21T00:36:27.400Z,93.12
2019-05-21T00:39:33.735Z,93.12
2019-05-21T00:42:04.765Z,93.64
2019-05-21T00:44:40.622Z,93.61
2019-05-21T00:47:11.911Z,93.55
2019-05-21T00:49:41.303Z,93.43
2019-05-21T00:52:10.753Z,93.59
2019-05-21T00:54:40.328Z,93.75
2019-05-21T00:57:09.697Z,93.76
2019-05-21T00:59:39.334Z,93.57
2019-05-21T01:02:08.710Z,93.54
2019-05-21T01:04:38.283Z,93.62
2019-05-21T01:07:08.747Z,93.74
2019-05-21T01:09:38.426Z,93.90
2019-05-21T01:12:08.694Z,93.89
2019-05-21T01:14:38.284Z,94.00
2019-05-21T01:17:08.723Z,94.04
2019-05-21T01:19:38.377Z,94.29
2019-05-21T01:22:08.828Z,94.42
2019-05-21T01:24:39.422Z,94.68
2019-05-21T01:27:08.856Z,94.91
2019-05-21T01:29:38.415Z,95.18
2019-05-21T01:32:08.705Z,95.49
2019-05-21T01:34:38.419Z,95.67
2019-05-21T01:37:08.659Z,95.91
2019-05-21T01:39:38.341Z,96.28
2019-05-21T01:42:09.677Z,96.55
2019-05-21T01:44:39.352Z,97.04
2019-05-21T01:47:08.769Z,97.04
2019-05-21T01:49:38.328Z,97.35
2019-05-21T01:52:08.698Z,97.46
2019-05-21T01:54:38.372Z,97.63
2019-05-21T01:57:08.825Z,97.36
2019-05-21T01:59:38.420Z,97.31
2019-05-21T02:02:08.815Z,97.31
2019-05-21T02:04:39.380Z,97.33
2019-05-21T02:07:08.827Z,97.40
2019-05-21T02:09:43.089Z,97.29
2019-05-21T02:12:12.698Z,97.52
2019-05-21T02:14:42.368Z,97.75
2019-05-21T02:17:13.564Z,98.08
2019-05-21T02:19:42.934Z,98.19
2019-05-21T02:22:13.629Z,98.34
2019-05-21T02:24:44.083Z,98.23
2019-05-21T02:27:13.815Z,98.05
2019-05-21T02:29:43.515Z,97.97
2019-05-21T02:32:12.903Z,97.95
2019-05-21T02:34:42.454Z,97.92
2019-05-21T02:37:12.141Z,97.91
2019-05-21T02:39:41.629Z,97.94
2019-05-21T02:42:11.029Z,97.87
2019-05-21T02:44:40.564Z,97.84
2019-05-21T02:47:09.947Z,97.53
2019-05-21T02:49:39.493Z,97.25
2019-05-21T02:52:08.903Z,97.11
2019-05-21T02:54:41.497Z,97.16
2019-05-21T02:57:09.894Z,97.34
2019-05-21T02:59:40.634Z,97.49
2019-05-21T03:02:29.423Z,97.60
2019-05-21T03:04:58.797Z,97.26
2019-05-21T03:07:28.187Z,96.71
2019-05-21T03:09:57.725Z,96.78
2019-05-21T03:12:27.106Z,96.88
2019-05-21T03:14:56.632Z,97.07
2019-05-21T03:17:26.029Z,97.15
2019-05-21T03:19:55.641Z,97.30
2019-05-21T03:22:25.334Z,97.30
2019-05-21T03:24:54.765Z,97.63
2019-05-21T03:27:24.160Z,97.55
2019-05-21T03:29:53.603Z,97.44
2019-05-21T03:32:23.002Z,97.37
2019-05-21T03:34:52.599Z,97.55
2019-05-21T03:37:22.302Z,97.78
2019-05-21T03:39:51.706Z,97.76
2019-05-21T03:42:21.091Z,97.75
2019-05-21T03:44:59.737Z,97.76
2019-05-21T03:47:21.911Z,97.60
2019-05-21T03:49:51.293Z,97.79
2019-05-21T03:52:21.223Z,98.03
2019-05-21T03:54:50.737Z,98.07
2019-05-21T03:57:20.207Z,98.14
2019-05-21T03:59:49.817Z,98.12
2019-05-21T04:02:21.071Z,98.12
2019-05-21T04:04:50.684Z,98.28
2019-05-21T04:07:20.058Z,98.23
2019-05-21T04:09:49.826Z,98.37
2019-05-21T04:12:19.190Z,98.54
2019-05-21T04:15:06.409Z,98.54
2019-05-21T04:17:40.239Z,98.44
2019-05-21T04:20:10.157Z,98.55
2019-05-21T04:22:41.312Z,98.67
2019-05-21T04:25:11.165Z,98.36
2019-05-21T04:27:41.793Z,98.36
2019-05-21T04:30:12.830Z,98.82
2019-05-21T04:32:42.200Z,98.82
2019-05-21T04:35:11.939Z,98.81
2019-05-21T04:37:41.631Z,98.70
2019-05-21T04:40:11.029Z,98.87
2019-05-21T04:42:41.035Z,98.94
2019-05-21T04:45:10.807Z,99.15
2019-05-21T04:47:40.179Z,99.28
2019-05-21T04:50:10.376Z,99.29
2019-05-21T04:52:39.735Z,99.52
2019-05-21T04:55:09.219Z,99.26
2019-05-21T04:57:38.914Z,99.32
2019-05-21T05:00:09.455Z,99.36
2019-05-21T05:02:40.327Z,99.30
2019-05-21T05:05:09.757Z,99.35
2019-05-21T05:07:39.159Z,99.53
2019-05-21T05:10:09.396Z,99.66
2019-05-21T05:12:38.863Z,99.61
2019-05-21T05:15:09.370Z,99.83
2019-05-21T05:17:39.875Z,99.56
2019-05-21T05:20:09.342Z,99.30
2019-05-21T05:22:38.790Z,99.40
2019-05-21T05:25:09.300Z,99.30
2019-05-21T05:27:38.892Z,99.14
2019-05-21T05:30:10.638Z,98.99
2019-05-21T05:32:40.103Z,99.04
2019-05-21T05:35:10.356Z,98.88
2019-05-21T05:37:46.350Z,98.55
2019-05-21T05:40:12.599Z,98.56
2019-05-21T05:42:41.999Z,98.71
2019-05-21T05:45:11.564Z,98.79
2019-05-21T05:47:40.955Z,98.82
2019-05-21T05:50:14.568Z,98.94
2019-05-21T05:52:43.943Z,99.14
2019-05-21T05:55:13.414Z,98.86
2019-05-21T05:57:45.226Z,98.87
2019-05-21T06:00:16.974Z,99.02
2019-05-21T06:02:46.344Z,99.16
2019-05-21T06:05:16.364Z,99.00
2019-05-21T06:07:58.656Z,98.88
2019-05-21T06:10:17.254Z,99.04
2019-05-21T06:12:46.918Z,99.08
2019-05-21T06:15:18.058Z,99.13
2019-05-21T06:17:47.481Z,98.71
2019-05-21T06:20:18.823Z,98.53
2019-05-21T06:22:48.265Z,98.48
2019-05-21T06:25:18.656Z,98.47
2019-05-21T06:27:48.103Z,98.27
2019-05-21T06:30:17.546Z,97.74
2019-05-21T06:32:47.310Z,97.95
2019-05-21T06:35:17.700Z,97.89
2019-05-21T06:37:47.097Z,97.72
2019-05-21T06:40:17.334Z,97.56
2019-05-21T06:42:47.002Z,97.92
2019-05-21T06:45:17.280Z,97.98
2019-05-21T06:47:46.954Z,98.33
2019-05-21T06:50:16.423Z,98.54
2019-05-21T06:52:45.993Z,98.50
2019-05-21T06:55:15.438Z,98.36
2019-05-21T06:57:45.125Z,98.36
2019-05-21T07:00:15.393Z,98.03
2019-05-21T07:02:45.083Z,98.27
2019-05-21T07:05:14.534Z,98.38
2019-05-21T07:07:44.041Z,98.50
2019-05-21T07:10:13.649Z,98.79
2019-05-21T07:12:44.724Z,99.15
2019-05-21T07:15:14.374Z,98.85
2019-05-21T07:17:44.348Z,98.80
2019-05-21T07:20:15.884Z,98.86
2019-05-21T07:22:45.409Z,98.40
2019-05-21T07:25:16.237Z,98.23
2019-05-21T07:27:45.710Z,98.29
2019-05-21T07:30:15.558Z,98.59
2019-05-21T07:32:45.681Z,98.62
2019-05-21T07:35:16.354Z,98.70
2019-05-21T07:37:46.099Z,98.80
2019-05-21T07:40:15.756Z,99.13
2019-05-21T07:42:45.179Z,99.11
2019-05-21T07:45:14.714Z,99.16
2019-05-21T07:47:44.145Z,99.09
2019-05-21T07:50:13.551Z,99.26
2019-05-21T07:52:43.100Z,99.78
2019-05-21T07:55:12.809Z,99.81
2019-05-21T07:57:42.310Z,99.89
2019-05-21T08:00:11.859Z,100.00
2019-05-21T08:02:41.239Z,100.00
2019-05-21T08:05:11.003Z,100.00
2019-05-21T08:07:40.388Z,100.00
2019-05-21T08:10:10.401Z,100.00
2019-05-21T08:12:40.139Z,100.00
2019-05-21T08:15:09.976Z,100.00
2019-05-21T08:17:39.466Z,100.00
2019-05-21T08:20:11.003Z,100.00
2019-05-21T08:22:40.553Z,100.00
2019-05-21T08:25:14.095Z,100.00
2019-05-21T08:27:41.211Z,100.00
2019-05-21T08:30:10.880Z,99.79
2019-05-21T08:32:40.309Z,99.02
2019-05-21T08:35:10.202Z,98.61
2019-05-21T08:37:39.613Z,98.63
2019-05-21T08:40:09.833Z,98.48
2019-05-21T08:42:39.638Z,98.91
2019-05-21T08:45:10.014Z,99.11
2019-05-21T08:47:39.641Z,99.38
2019-05-21T08:50:10.701Z,98.64
2019-05-21T08:52:40.205Z,96.82
2019-05-21T08:55:09.784Z,96.64
2019-05-21T08:57:39.312Z,96.14
2019-05-21T09:00:13.353Z,95.57
2019-05-21T09:02:42.836Z,95.30
2019-05-21T09:05:12.623Z,95.13
2019-05-21T09:07:42.211Z,95.27
2019-05-21T09:10:12.502Z,95.30
2019-05-21T09:12:41.880Z,94.80
2019-05-21T09:15:12.000Z,94.81
2019-05-21T09:17:41.431Z,94.97
2019-05-21T09:20:11.179Z,95.32
2019-05-21T09:22:40.557Z,95.32
2019-05-21T09:25:10.144Z,95.05
2019-05-21T09:27:39.517Z,94.93
2019-05-21T09:30:10.548Z,95.01
2019-05-21T09:32:40.319Z,94.49
2019-05-21T09:35:10.082Z,94.49
2019-05-21T09:37:39.699Z,94.61
2019-05-21T09:40:11.384Z,94.62
2019-05-21T09:42:40.753Z,94.22
2019-05-21T09:45:10.690Z,94.08
2019-05-21T09:47:40.417Z,93.98
2019-05-21T09:50:10.360Z,94.02
2019-05-21T09:52:39.834Z,93.82
2019-05-21T09:55:10.776Z,94.28
2019-05-21T09:58:00.184Z,94.57
2019-05-21T10:00:33.929Z,94.66
2019-05-21T10:03:05.135Z,94.40
2019-05-21T10:05:34.551Z,94.52
2019-05-21T10:08:04.095Z,94.52
2019-05-21T10:10:33.510Z,94.79
2019-05-21T10:13:02.923Z,94.72
2019-05-21T10:15:32.458Z,94.71
2019-05-21T10:18:01.877Z,94.65
2019-05-21T10:20:31.424Z,94.64
2019-05-21T10:23:00.791Z,94.68
2019-05-21T10:25:30.383Z,94.57
2019-05-21T10:27:59.759Z,94.32
2019-05-21T10:30:29.468Z,94.28
2019-05-21T10:32:58.851Z,94.37
2019-05-21T10:35:28.371Z,93.71
2019-05-21T10:37:58.037Z,93.62
2019-05-21T10:40:27.422Z,94.31
2019-05-21T10:43:10.956Z,94.63
2019-05-21T10:45:43.650Z,94.41
2019-05-21T10:48:15.738Z,94.21
2019-05-21T10:50:45.430Z,94.46
2019-05-21T10:53:14.806Z,94.53
2019-05-21T10:55:44.427Z,94.69
2019-05-21T10:58:13.879Z,95.00
2019-05-21T11:00:45.080Z,95.20
2019-05-21T11:03:16.345Z,95.73
2019-05-21T11:05:47.409Z,95.91
2019-05-21T11:08:25.249Z,95.91
2019-05-21T11:10:47.952Z,95.79
2019-05-21T11:13:17.511Z,95.95
2019-05-21T11:15:46.921Z,95.95
2019-05-21T11:18:16.600Z,96.20
2019-05-21T11:20:46.018Z,96.37
2019-05-21T11:23:15.747Z,96.56
2019-05-21T11:25:45.732Z,96.72
2019-05-21T11:28:15.717Z,96.72
2019-05-21T11:30:45.253Z,96.84
2019-05-21T11:33:14.757Z,97.11
2019-05-21T11:35:44.228Z,97.12
2019-05-21T11:38:13.815Z,96.96
2019-05-21T11:40:43.166Z,96.79
2019-05-21T11:43:13.042Z,96.45
2019-05-21T11:45:43.085Z,96.45
2019-05-21T11:48:12.848Z,96.76
2019-05-21T11:50:42.248Z,97.12
2019-05-21T11:53:11.936Z,97.65
2019-05-21T11:55:41.638Z,97.64
2019-05-21T11:58:11.326Z,97.07
2019-05-21T12:00:40.802Z,97.20
2019-05-21T12:03:10.188Z,97.45
2019-05-21T12:05:39.821Z,97.65
2019-05-21T12:08:10.066Z,97.82
2019-05-21T12:10:39.747Z,98.00
2019-05-21T12:13:10.023Z,98.07
2019-05-21T12:15:39.725Z,98.10
2019-05-21T12:18:10.079Z,98.09
2019-05-21T12:20:39.741Z,97.93
2019-05-21T12:23:10.106Z,98.04
2019-05-21T12:25:39.779Z,98.41
2019-05-21T12:28:11.219Z,98.70
2019-05-21T12:30:41.051Z,98.92
2019-05-21T12:33:10.733Z,99.13
2019-05-21T12:35:40.127Z,99.49
2019-05-21T12:38:10.173Z,99.73
2019-05-21T12:40:39.782Z,99.62
2019-05-21T12:43:10.148Z,99.38
2019-05-21T12:45:39.828Z,99.60
2019-05-21T12:48:10.353Z,99.64
2019-05-21T12:50:39.910Z,99.75
2019-05-21T12:53:10.203Z,99.83
2019-05-21T12:55:39.842Z,100.00
2019-05-21T12:58:10.203Z,100.00
2019-05-21T13:00:40.169Z,100.00
2019-05-21T13:03:10.327Z,100.00
2019-05-21T13:05:40.207Z,100.00
2019-05-21T13:08:10.639Z,100.00
2019-05-21T13:10:40.042Z,100.00
2019-05-21T13:13:10.216Z,100.00
2019-05-21T13:15:39.895Z,100.00
2019-05-21T13:18:10.316Z,100.00
2019-05-21T13:20:40.020Z,100.00
2019-05-21T13:23:10.308Z,100.00
2019-05-21T13:25:39.967Z,100.00
2019-05-21T13:28:10.337Z,100.00
2019-05-21T13:30:39.994Z,100.00
2019-05-21T13:33:10.334Z,100.00
2019-05-21T13:35:39.903Z,100.00
2019-05-21T13:38:13.543Z,100.00
2019-05-21T13:40:41.411Z,100.00
2019-05-21T13:43:11.217Z,99.42
2019-05-21T13:45:40.611Z,98.45
2019-05-21T13:48:10.449Z,98.21
2019-05-21T13:50:39.960Z,98.07
2019-05-21T13:53:10.336Z,97.38
2019-05-21T13:55:40.003Z,97.30
2019-05-21T13:58:10.363Z,97.30
2019-05-21T14:00:46.831Z,97.21
2019-05-21T14:03:16.337Z,96.85
2019-05-21T14:05:46.099Z,95.54
2019-05-21T14:08:15.515Z,95.01
2019-05-21T14:10:45.470Z,94.38
2019-05-21T14:13:15.179Z,93.90
2019-05-21T14:15:44.614Z,93.16
2019-05-21T14:18:14.337Z,93.36
2019-05-21T14:20:44.084Z,93.53
2019-05-21T14:23:13.497Z,93.37
2019-05-21T14:25:43.105Z,92.17
2019-05-21T14:28:12.518Z,91.36
2019-05-21T14:30:42.264Z,91.49
2019-05-21T14:33:11.656Z,90.68
2019-05-21T14:35:41.054Z,90.56
2019-05-21T14:38:10.543Z,89.49
2019-05-21T14:40:40.061Z,89.22
2019-05-21T14:43:10.533Z,87.97
2019-05-21T14:45:40.251Z,87.36
2019-05-21T14:48:10.559Z,88.30
2019-05-21T14:50:41.172Z,88.38
2019-05-21T14:53:10.688Z,87.19
2019-05-21T14:55:40.139Z,85.87
2019-05-21T14:58:10.455Z,86.45
2019-05-21T15:00:40.416Z,86.97
2019-05-21T15:03:24.349Z,85.98
2019-05-21T15:05:41.668Z,85.11
2019-05-21T15:08:11.364Z,85.68
2019-05-21T15:10:48.519Z,85.64
2019-05-21T15:13:13.472Z,85.36
2019-05-21T15:15:43.218Z,84.84
2019-05-21T15:18:19.549Z,84.58
2019-05-21T15:21:00.741Z,84.61
2019-05-21T15:23:30.216Z,82.46
2019-05-21T15:25:59.614Z,82.57
2019-05-21T15:28:29.191Z,83.14
2019-05-21T15:30:58.557Z,82.87
2019-05-21T15:33:28.259Z,83.12
2019-05-21T15:35:57.635Z,82.97
2019-05-21T15:38:27.369Z,83.43
2019-05-21T15:41:09.735Z,82.82
2019-05-21T15:43:29.011Z,82.99
2019-05-21T15:45:59.458Z,82.77
2019-05-21T15:48:28.852Z,82.74
2019-05-21T15:50:58.261Z,82.36
2019-05-21T15:53:27.695Z,82.51
2019-05-21T15:55:57.261Z,81.39
2019-05-21T15:58:27.345Z,81.25
2019-05-21T16:00:56.869Z,81.55
2019-05-21T16:03:26.532Z,81.45
2019-05-21T16:05:56.255Z,81.81
2019-05-21T16:08:25.670Z,81.87
2019-05-21T16:10:55.381Z,81.94
2019-05-21T16:13:25.069Z,81.28
2019-05-21T16:15:54.519Z,81.28
2019-05-21T16:18:23.934Z,79.30
2019-05-21T16:20:53.353Z,78.06
2019-05-21T16:23:23.007Z,76.34
2019-05-21T16:25:52.400Z,76.40
2019-05-21T16:28:22.102Z,77.07
2019-05-21T16:30:51.540Z,77.25
2019-05-21T16:33:21.896Z,77.80
2019-05-21T16:35:52.539Z,77.91
2019-05-21T16:38:21.919Z,77.06
2019-05-21T16:40:51.379Z,76.63
2019-05-21T16:43:20.749Z,75.94
2019-05-21T16:45:51.727Z,76.15
2019-05-21T16:48:21.397Z,75.81
2019-05-21T16:50:50.798Z,75.56
2019-05-21T16:53:20.411Z,75.37
2019-05-21T16:55:49.802Z,75.37
2019-05-21T16:58:19.484Z,75.57
2019-05-21T17:00:48.913Z,75.48
2019-05-21T17:03:18.590Z,75.22
2019-05-21T17:05:48.030Z,75.06
2019-05-21T17:08:17.676Z,75.69
2019-05-21T17:10:47.437Z,75.76
2019-05-21T17:13:16.815Z,75.87
2019-05-21T17:15:47.183Z,76.06
2019-05-21T17:18:16.704Z,76.21
2019-05-21T17:20:46.438Z,77.01
2019-05-21T17:23:16.133Z,76.95
2019-05-21T17:25:45.569Z,77.10
2019-05-21T17:28:14.958Z,77.34
2019-05-21T17:30:44.729Z,77.32
2019-05-21T17:33:15.389Z,76.94
2019-05-21T17:35:44.756Z,77.34
2019-05-21T17:38:14.517Z,77.06
2019-05-21T17:40:43.915Z,77.55
2019-05-21T17:43:14.741Z,77.80
2019-05-21T17:45:44.144Z,77.34
2019-05-21T17:48:13.818Z,77.31
2019-05-21T17:50:43.559Z,77.07
2019-05-21T17:53:12.940Z,77.52
2019-05-21T17:55:42.501Z,77.46
2019-05-21T17:58:12.844Z,77.26
2019-05-21T18:00:46.911Z,77.55
2019-05-21T18:03:17.021Z,77.23
2019-05-21T18:05:47.292Z,76.99
2019-05-21T18:08:17.421Z,77.33
2019-05-21T18:10:46.635Z,77.22
2019-05-21T18:13:18.042Z,77.18
2019-05-21T18:15:47.949Z,77.15
2019-05-21T18:18:17.905Z,77.42
2019-05-21T18:20:47.698Z,77.67
2019-05-21T18:23:17.083Z,77.87
2019-05-21T18:25:46.561Z,78.26
2019-05-21T18:28:16.313Z,78.49
2019-05-21T18:30:45.924Z,78.49
2019-05-21T18:33:15.591Z,77.98
2019-05-21T18:35:45.516Z,78.32
2019-05-21T18:38:15.113Z,78.20
2019-05-21T18:40:44.834Z,78.58
2019-05-21T18:43:14.848Z,78.93
2019-05-21T18:45:44.248Z,78.69
2019-05-21T18:48:13.978Z,78.63
2019-05-21T18:50:44.667Z,78.72
2019-05-21T18:53:14.049Z,79.58
2019-05-21T18:55:43.592Z,79.29
2019-05-21T18:58:13.066Z,79.49
2019-05-21T19:00:42.819Z,79.74
2019-05-21T19:03:12.594Z,79.67
2019-05-21T19:05:41.977Z,79.32
2019-05-21T19:08:11.744Z,79.49
2019-05-21T19:10:41.666Z,80.02
2019-05-21T19:13:12.974Z,80.17
2019-05-21T19:15:42.698Z,81.47
2019-05-21T19:18:12.170Z,81.47
2019-05-21T19:20:41.700Z,81.50
2019-05-21T19:23:11.185Z,81.38
2019-05-21T19:25:40.806Z,81.52
2019-05-21T19:28:11.373Z,81.71
2019-05-21T19:30:40.767Z,81.85
2019-05-21T19:33:11.147Z,82.16
2019-05-21T19:35:41.952Z,82.43
2019-05-21T19:38:12.933Z,82.76
2019-05-21T19:40:42.315Z,83.27
2019-05-21T19:43:12.025Z,83.35
2019-05-21T19:45:41.718Z,83.47
2019-05-21T19:48:11.246Z,83.96
2019-05-21T19:50:40.795Z,83.98
2019-05-21T19:53:11.099Z,84.34
2019-05-21T19:55:41.134Z,84.24
2019-05-21T19:58:11.111Z,84.02
2019-05-21T20:00:42.490Z,84.12
2019-05-21T20:03:13.317Z,84.56
2019-05-21T20:05:42.769Z,85.00
2019-05-21T20:08:12.487Z,85.44
2019-05-21T20:10:42.237Z,85.86
2019-05-21T20:13:11.906Z,86.36
2019-05-21T20:15:41.953Z,86.59
2019-05-21T20:18:12.103Z,87.11
2019-05-21T20:20:42.280Z,87.28
2019-05-21T20:23:13.194Z,87.61
2019-05-21T20:25:55.302Z,87.69
2019-05-21T20:28:14.161Z,87.86
2019-05-21T20:30:44.856Z,87.66
2019-05-21T20:33:14.697Z,87.26
2019-05-21T20:35:44.658Z,87.39
2019-05-21T20:38:14.223Z,87.12
2019-05-21T20:40:43.865Z,86.73
2019-05-21T20:43:14.240Z,86.98
2019-05-21T20:45:45.570Z,87.15
2019-05-21T20:48:16.473Z,86.86
2019-05-21T20:50:47.813Z,87.10
2019-05-21T20:53:17.272Z,87.01
2019-05-21T20:55:46.830Z,86.77
2019-05-21T20:58:16.586Z,86.77
2019-05-21T21:00:47.718Z,87.56
2019-05-21T21:03:17.316Z,86.64
2019-05-21T21:05:48.022Z,87.05
2019-05-21T21:08:17.466Z,87.17
2019-05-21T21:10:47.033Z,87.35
2019-05-21T21:13:17.074Z,85.59
2019-05-21T21:15:48.881Z,85.09
2019-05-21T21:18:18.328Z,84.50
2019-05-21T21:20:47.878Z,85.03
2019-05-21T21:23:18.974Z,85.54
2019-05-21T21:25:48.423Z,84.72
2019-05-21T21:28:18.545Z,84.80
2019-05-21T21:30:48.410Z,84.80
2019-05-21T21:33:18.948Z,86.36
2019-05-21T21:35:48.328Z,85.59
2019-05-21T21:38:20.122Z,85.79
2019-05-21T21:40:49.800Z,86.02
2019-05-21T21:43:19.203Z,85.09
2019-05-21T21:45:48.659Z,84.45
2019-05-21T21:48:18.619Z,84.94
2019-05-21T21:50:48.501Z,85.30
2019-05-21T21:53:18.834Z,85.81
2019-05-21T21:55:49.639Z,86.25
2019-05-21T21:58:19.307Z,86.61
2019-05-21T22:00:59.836Z,86.61
2019-05-21T22:03:30.948Z,86.07
2019-05-21T22:06:00.897Z,86.09
2019-05-21T22:08:31.375Z,86.67
2019-05-21T22:11:01.535Z,86.22
2019-05-21T22:13:31.447Z,87.06
2019-05-21T22:16:01.114Z,86.90
2019-05-21T22:18:31.076Z,86.90
2019-05-21T22:21:01.219Z,87.58
2019-05-21T22:23:30.887Z,87.16
2019-05-21T22:26:00.269Z,86.87
2019-05-21T22:28:29.727Z,87.15
2019-05-21T22:30:59.901Z,87.70
2019-05-21T22:33:29.463Z,87.75
2019-05-21T22:35:59.100Z,89.11
2019-05-21T22:38:32.112Z,87.10
2019-05-21T22:41:00.032Z,86.91
2019-05-21T22:43:30.417Z,88.35
2019-05-21T22:46:00.744Z,88.17
2019-05-21T22:48:30.302Z,88.17
2019-05-21T22:50:59.989Z,87.75
2019-05-21T22:53:29.411Z,87.25
2019-05-21T22:55:59.102Z,87.03
2019-05-21T22:58:28.776Z,87.81
2019-05-21T23:01:01.423Z,88.10
2019-05-21T23:03:30.799Z,87.64
2019-05-21T23:06:00.190Z,87.81
2019-05-21T23:08:29.657Z,88.20
2019-05-21T23:10:59.210Z,88.35
2019-05-21T23:13:28.591Z,88.75
2019-05-21T23:15:58.638Z,88.59
2019-05-21T23:18:46.372Z,88.79
2019-05-21T23:21:36.091Z,89.38
2019-05-21T23:24:07.654Z,89.41
2019-05-21T23:26:37.234Z,89.30
2019-05-21T23:29:07.807Z,89.19
2019-05-21T23:31:37.357Z,89.46
2019-05-21T23:34:06.757Z,89.56
2019-05-21T23:36:37.060Z,90.09
2019-05-21T23:39:08.359Z,90.25
2019-05-21T23:41:38.832Z,91.25
2019-05-21T23:44:08.847Z,90.39
2019-05-21T23:46:38.222Z,89.59
2019-05-21T23:49:07.610Z,89.22
2019-05-21T23:51:37.296Z,89.53
2019-05-21T23:54:06.765Z,89.58
2019-05-21T23:56:37.306Z,90.30
2019-05-21T23:59:06.791Z,90.39
